createdAt,value
2022-12-24T00:02:47.961Z,99960.24
2022-12-24T00:07:53.676Z,99961.81
2022-12-24T00:12:59.129Z,99963.59
2022-12-24T00:18:04.646Z,99960.56
2022-12-24T00:23:10.111Z,99951.58
2022-12-24T00:28:17.004Z,99964.78
2022-12-24T00:33:24.792Z,99961.61
2022-12-24T00:38:29.958Z,99976.81
2022-12-24T00:43:35.458Z,99958.88
2022-12-24T00:48:40.975Z,99965.45
2022-12-24T00:53:46.433Z,99974.34
2022-12-24T00:58:51.890Z,99965.91
2022-12-24T01:03:59.536Z,99973.29
2022-12-24T01:09:05.419Z,99968.91
2022-12-24T01:14:11.032Z,99971.72
2022-12-24T01:19:16.413Z,99977.27
2022-12-24T01:24:21.924Z,99986.33
2022-12-24T01:29:27.549Z,99976.88
2022-12-24T01:34:32.975Z,99987.02
2022-12-24T01:39:38.505Z,99989.05
2022-12-24T01:44:46.776Z,99993.69
2022-12-24T01:49:55.212Z,99995.47
2022-12-24T01:55:03.642Z,100004.91
2022-12-24T02:00:12.581Z,100005.47
2022-12-24T02:05:26.661Z,100022.47
2022-12-24T02:10:32.483Z,100017.02
2022-12-24T02:15:57.956Z,100025.84
2022-12-24T02:21:12.561Z,100017.88
2022-12-24T02:26:29.873Z,100033.09
2022-12-24T02:31:47.003Z,100015.59
2022-12-24T02:37:07.757Z,100026.54
2022-12-24T02:42:16.324Z,100027.94
2022-12-24T02:47:24.768Z,100022.30
2022-12-24T02:52:38.883Z,100028.66
2022-12-24T02:58:02.476Z,100031.23
2022-12-24T03:03:20.025Z,100031.98
2022-12-24T03:08:45.301Z,100035.10
2022-12-24T03:13:52.127Z,100033.17
2022-12-24T03:18:59.789Z,100036.69
2022-12-24T03:24:05.787Z,100047.98
2022-12-24T03:29:11.230Z,100051.65
2022-12-24T03:34:18.820Z,100045.91
2022-12-24T03:39:24.792Z,100058.31
2022-12-24T03:44:30.166Z,100069.10
2022-12-24T03:49:35.824Z,100066.98
2022-12-24T03:54:41.419Z,100067.20
2022-12-24T03:59:46.945Z,100069.25
2022-12-24T04:04:52.394Z,100081.58
2022-12-24T04:09:57.788Z,100082.11
2022-12-24T04:15:03.323Z,100091.64
2022-12-24T04:20:09.848Z,100100.19
2022-12-24T04:25:15.503Z,100103.23
2022-12-24T04:30:21.126Z,100102.84
2022-12-24T04:35:26.776Z,100104.53
2022-12-24T04:40:32.240Z,100110.82
2022-12-24T04:45:37.753Z,100114.50
2022-12-24T04:50:43.212Z,100119.17
2022-12-24T04:55:48.949Z,100121.12
2022-12-24T05:00:54.848Z,100125.09
2022-12-24T05:06:09.611Z,100124.89
2022-12-24T05:11:16.034Z,100116.61
2022-12-24T05:16:23.118Z,100128.42
2022-12-24T05:21:28.649Z,100121.36
2022-12-24T05:26:37.393Z,100126.06
2022-12-24T05:31:45.130Z,100134.67
2022-12-24T05:36:50.763Z,100144.27
2022-12-24T05:41:56.181Z,100165.44
2022-12-24T05:47:01.626Z,100160.56
2022-12-24T05:52:07.172Z,100176.47
2022-12-24T05:57:15.134Z,100170.97
2022-12-24T06:02:20.752Z,100172.06
2022-12-24T06:07:27.080Z,100181.03
2022-12-24T06:12:32.593Z,100189.92
2022-12-24T06:17:38.315Z,100195.33
2022-12-24T06:22:43.754Z,100195.33
2022-12-24T06:27:49.272Z,100198.16
2022-12-24T06:32:54.668Z,100218.55
2022-12-24T06:38:00.539Z,100218.55
2022-12-24T06:43:06.171Z,100229.61
2022-12-24T06:48:11.641Z,100243.70
2022-12-24T06:53:17.089Z,100253.95
2022-12-24T06:58:22.518Z,100258.61
2022-12-24T07:03:28.009Z,100259.20
2022-12-24T07:08:35.622Z,100269.90
2022-12-24T07:13:41.133Z,100269.90
2022-12-24T07:18:46.737Z,100276.58
2022-12-24T07:23:52.187Z,100290.45
2022-12-24T07:28:58.344Z,100300.23
2022-12-24T07:34:03.785Z,100312.95
2022-12-24T07:39:09.250Z,100320.78
2022-12-24T07:44:15.683Z,100320.78
2022-12-24T07:49:21.106Z,100334.02
2022-12-24T07:54:26.650Z,100334.02
2022-12-24T07:59:32.171Z,100344.89
2022-12-24T08:04:37.622Z,100352.09
2022-12-24T08:09:44.466Z,100351.80
2022-12-24T08:14:49.981Z,100362.02
2022-12-24T08:19:55.458Z,100375.29
2022-12-24T08:25:00.950Z,100375.29
2022-12-24T08:30:07.967Z,100367.72
2022-12-24T08:35:13.350Z,100377.23
2022-12-24T08:40:19.066Z,100391.86
2022-12-24T08:45:24.528Z,100400.76
2022-12-24T08:50:29.976Z,100403.05
2022-12-24T08:55:35.468Z,100405.50
2022-12-24T09:00:41.139Z,100408.55
2022-12-24T09:05:46.566Z,100411.08
2022-12-24T09:10:52.025Z,100411.61
2022-12-24T09:15:57.648Z,100422.16
2022-12-24T09:21:05.500Z,100423.36
2022-12-24T09:26:22.971Z,100421.96
2022-12-24T09:31:29.308Z,100429.80
2022-12-24T09:36:35.994Z,100439.32
2022-12-24T09:42:02.117Z,100449.68
2022-12-24T09:47:13.361Z,100451.75
2022-12-24T09:52:21.811Z,100460.87
2022-12-24T09:57:32.842Z,100461.89
2022-12-24T10:02:39.979Z,100456.00
2022-12-24T10:07:57.497Z,100462.57
2022-12-24T10:13:21.146Z,100479.59
2022-12-24T10:18:33.339Z,100482.65
2022-12-24T10:23:47.443Z,100478.73
2022-12-24T10:29:09.248Z,100482.73
2022-12-24T10:34:17.676Z,100486.50
2022-12-24T10:39:26.219Z,100487.83
2022-12-24T10:44:34.304Z,100482.13
2022-12-24T10:49:42.826Z,100491.53
2022-12-24T10:55:09.482Z,100494.59
2022-12-24T11:00:25.955Z,100497.31
2022-12-24T11:05:33.833Z,100491.27
2022-12-24T11:10:42.317Z,100481.05
2022-12-24T11:15:50.128Z,100492.50
2022-12-24T11:20:57.495Z,100502.59
2022-12-24T11:26:03.926Z,100446.41
2022-12-24T11:31:24.318Z,100504.85
2022-12-24T11:36:31.400Z,100509.44
2022-12-24T11:41:40.766Z,100516.02
2022-12-24T11:46:47.977Z,100524.98
2022-12-24T11:52:14.629Z,100525.48
2022-12-24T11:57:23.495Z,100526.20
2022-12-24T12:02:32.018Z,100532.34
2022-12-24T12:07:39.669Z,100524.74
2022-12-24T12:13:09.750Z,100533.78
2022-12-24T12:18:25.477Z,100542.61
2022-12-24T12:23:45.479Z,100545.97
2022-12-24T12:29:02.263Z,100564.57
2022-12-24T12:34:16.831Z,100572.20
2022-12-24T12:39:22.357Z,100569.09
2022-12-24T12:44:45.493Z,100572.87
2022-12-24T12:50:16.902Z,100572.60
2022-12-24T12:55:30.914Z,100567.75
2022-12-24T13:00:41.191Z,100558.52
2022-12-24T13:05:55.071Z,100556.40
2022-12-24T13:11:36.778Z,100565.97
2022-12-24T13:16:51.500Z,100578.88
2022-12-24T13:21:58.168Z,100591.24
2022-12-24T13:27:18.462Z,100596.76
2022-12-24T13:32:40.879Z,100602.14
2022-12-24T13:37:46.758Z,100593.83
2022-12-24T13:43:13.503Z,100606.66
2022-12-24T13:48:34.185Z,100607.19
2022-12-24T13:53:42.694Z,100610.64
2022-12-24T13:58:50.781Z,100624.00
2022-12-24T14:03:59.275Z,100628.73
2022-12-24T14:09:10.732Z,100612.12
2022-12-24T14:14:37.180Z,100611.05
2022-12-24T14:19:45.605Z,100624.67
2022-12-24T14:25:06.208Z,100632.55
2022-12-24T14:30:23.359Z,100633.70
2022-12-24T14:35:40.861Z,100640.00
2022-12-24T14:41:09.161Z,100652.02
2022-12-24T14:46:20.398Z,100659.06
2022-12-24T14:51:28.950Z,100679.25
2022-12-24T14:56:34.646Z,100668.17
2022-12-24T15:01:40.326Z,100671.53
2022-12-24T15:06:53.061Z,100674.99
2022-12-24T15:12:03.072Z,100682.96
2022-12-24T15:17:09.524Z,100695.62
2022-12-24T15:22:24.274Z,100706.58
2022-12-24T15:27:32.698Z,100717.94
2022-12-24T15:32:38.162Z,100716.40
2022-12-24T15:37:44.224Z,100714.67
2022-12-24T15:42:50.280Z,100719.40
2022-12-24T15:48:04.544Z,100724.72
2022-12-24T15:53:19.843Z,100726.44
2022-12-24T15:58:28.298Z,100724.77
2022-12-24T16:03:34.299Z,100726.04
2022-12-24T16:08:42.000Z,100728.30
2022-12-24T16:14:05.741Z,100724.06
2022-12-24T16:19:25.865Z,100723.16
2022-12-24T16:24:32.573Z,100722.17
2022-12-24T16:29:38.039Z,100732.73
2022-12-24T16:34:43.503Z,100732.80
2022-12-24T16:39:49.595Z,100742.21
2022-12-24T16:44:55.696Z,100745.94
2022-12-24T16:50:02.497Z,100755.23
2022-12-24T16:55:08.593Z,100746.08
2022-12-24T17:00:22.669Z,100740.52
2022-12-24T17:05:28.575Z,100752.08
2022-12-24T17:10:34.713Z,100756.28
2022-12-24T17:15:42.836Z,100754.95
2022-12-24T17:20:51.374Z,100758.42
2022-12-24T17:25:58.179Z,100764.33
2022-12-24T17:31:08.836Z,100767.66
2022-12-24T17:36:14.397Z,100778.53
2022-12-24T17:41:21.425Z,100787.31
2022-12-24T17:46:27.071Z,100777.89
2022-12-24T17:51:33.583Z,100793.67
2022-12-24T17:56:39.165Z,100791.10
2022-12-24T18:01:44.946Z,100792.10
2022-12-24T18:06:51.318Z,100784.94
2022-12-24T18:11:57.952Z,100796.89
2022-12-24T18:17:03.801Z,100809.38
2022-12-24T18:22:16.909Z,100803.66
2022-12-24T18:27:23.570Z,100824.33
2022-12-24T18:32:29.052Z,100819.59
2022-12-24T18:37:35.076Z,100822.94
2022-12-24T18:42:42.385Z,100830.95
2022-12-24T18:47:47.850Z,100831.67
2022-12-24T18:52:53.315Z,100838.59
2022-12-24T18:57:59.315Z,100830.80
2022-12-24T19:03:04.903Z,100849.63
2022-12-24T19:08:46.563Z,100855.23
2022-12-24T19:13:17.524Z,100852.75
2022-12-24T19:18:23.112Z,100849.92
2022-12-24T19:23:28.592Z,100865.80
2022-12-24T19:28:35.077Z,100866.90
2022-12-24T19:33:43.812Z,100869.96
2022-12-24T19:38:50.028Z,100872.09
2022-12-24T19:43:58.349Z,100873.83
2022-12-24T19:49:06.512Z,100877.64
2022-12-24T19:54:18.861Z,100877.23
2022-12-24T19:59:20.950Z,100886.14
2022-12-24T20:04:26.488Z,100887.60
2022-12-24T20:09:34.052Z,100896.27
2022-12-24T20:14:39.620Z,100916.23
2022-12-24T20:19:45.143Z,100924.72
2022-12-24T20:24:50.538Z,100909.59
2022-12-24T20:29:56.004Z,100906.64
2022-12-24T20:35:01.388Z,100926.68
2022-12-24T20:40:07.658Z,100936.95
2022-12-24T20:45:13.189Z,100940.89
2022-12-24T20:50:20.939Z,100943.73
2022-12-24T20:55:26.658Z,100940.61
2022-12-24T21:00:32.302Z,100937.95
2022-12-24T21:05:37.758Z,100935.73
2022-12-24T21:10:43.389Z,100932.78
2022-12-24T21:15:48.957Z,100923.59
2022-12-24T21:20:56.041Z,100923.55
2022-12-24T21:26:04.005Z,100928.39
2022-12-24T21:31:14.090Z,100922.50
2022-12-24T21:36:20.920Z,100918.05
2022-12-24T21:41:27.355Z,100928.59
2022-12-24T21:46:32.939Z,100926.13
2022-12-24T21:51:39.053Z,100925.76
2022-12-24T21:57:03.028Z,100936.53
2022-12-24T22:02:11.122Z,100939.17
2022-12-24T22:07:46.072Z,100939.53
2022-12-24T22:12:51.629Z,100952.54
2022-12-24T22:17:57.166Z,100960.23
2022-12-24T22:23:02.646Z,100955.58
2022-12-24T22:28:08.936Z,100970.84
2022-12-24T22:33:14.544Z,100963.84
2022-12-24T22:38:20.036Z,100968.78
2022-12-24T22:43:26.241Z,100963.48
2022-12-24T22:48:31.713Z,100965.50
2022-12-24T22:53:38.045Z,100978.27
2022-12-24T22:58:43.685Z,100987.28
2022-12-24T23:03:49.279Z,100988.90
2022-12-24T23:08:54.752Z,100988.67
2022-12-24T23:14:18.026Z,101002.20
2022-12-24T23:19:23.549Z,101005.06
2022-12-24T23:24:29.682Z,101016.77
2022-12-24T23:29:35.615Z,101017.00
2022-12-24T23:34:41.119Z,101023.30
2022-12-24T23:39:46.599Z,101032.38
2022-12-24T23:44:52.264Z,101027.12
2022-12-24T23:49:57.793Z,101014.63
2022-12-24T23:55:03.251Z,101016.16
